South Vienna, Ohio
Current Conditions -  °F | °C
As of 7:15 PM on Saturday 25 Oct 2014 (Local Time) from KUYF Reporting Station
Clear Clear  
Wind Chill: 59°   Ceiling: Unl
Heat Index: 59°   Visibility: 10mi
Dew Point: 46°   Wind: 6mph
Humidity: 63%   Direction: 270°W
Pressure: 29.86"   Gusts: NA
Location:  39.93°N, 83.61°W
Report Text: KUYF 252315Z AUTO 27005KT 10SM CLR 15/08 A2986 RMK AO2
Loading
Personal Weather Stations






























Interactive Weather Map
Tropical Storm Tracking
New forecast layout! Learn more

10-Day Weather Forecast

Advertisements
Track Severe Weather on mobile